• Join FlightAware (Why Join?)
  • Login
  • US Flag 
07:54PM EDT


 

Airport Tracker/Info


-or-


 

Live Flight TrackerFlight Track Log ✈ UAL481 ✈ 16-Jun-2014 ✈ MMSD / SJD - KIAH

Flight Track Log - Related Links

Times and Time Zones

All times are in EDT time to prevent confusion due to time zone crossing. See the UAL481 flight status page for this flight to view local times or setup timezone preferences in your user account.

Time Position Orientation Groundspeed Altitude Reporting Facility
EDT Latitude Longitude Course Direction KTS MPH feet Rate Location/Type
07:09PM 26.9014 -100.9208 74° East 490 564 37,000  Level Houston Center
07:10PM 26.9575 -100.7825 66° East 490 564 37,000  Level Houston Center
07:11PM 26.9186 -101.5371 63° Northeast  Level FlightAware Approximate
07:11PM 27.0122 -100.6456 66° East 486 559 37,000  Level Houston Center
07:12PM 26.9628 -101.4178 74° East  Level FlightAware Approximate
07:12PM 27.0661 -100.5097 66° East 481 554 36,900  Level Houston Center
07:13PM 26.9953 -101.2934 74° East  Level FlightAware Approximate
07:13PM 27.1322 -100.3461 66° East 481 554 36,900  Level Houston Center
07:14PM 27.0278 -101.1690 74° East  Level FlightAware Approximate
07:14PM 27.1864 -100.2067 66° East 485 558 36,900  Level Houston Center
07:15PM 27.2450 -100.0689 64° Northeast 488 562 37,000  Climbing Houston Center
07:16PM 27.3231 -99.9419 55° Northeast 491 565 36,900  Descending Houston Center
07:18PM 27.4022 -99.8144 55° Northeast 493 567 37,000  Climbing Houston Center
07:19PM 27.4811 -99.6856 55° Northeast 498 573 37,000  Level Houston Center
07:20PM 27.5772 -99.5319 55° Northeast 499 574 37,000  Level Houston Center
07:21PM 27.6569 -99.4011 55° Northeast 499 574 37,000 -60 Level Houston Center
07:22PM 27.7372 -99.2717 55° Northeast 501 577 36,900 -60 Descending Houston Center
07:23PM 27.8175 -99.1403 55° Northeast 501 577 36,900  Level Houston Center
07:24PM 27.8981 -99.0081 55° Northeast 502 578 37,000  Climbing Houston Center
07:25PM 27.9764 -98.8772 56° Northeast 502 578 37,000  Level Houston Center
07:26PM 28.0558 -98.7456 56° Northeast 503 579 37,000  Level Houston Center
07:27PM 28.1344 -98.6147 56° Northeast 503 579 37,000  Level Houston Center
07:28PM 28.2292 -98.4569 56° Northeast 503 579 37,000  Level Houston Center
07:29PM 28.3114 -98.3189 56° Northeast 497 572 37,000  Level Houston Center
07:30PM 28.3897 -98.1881 56° Northeast 496 571 37,000  Level Houston Center
07:31PM 28.4678 -98.0561 56° Northeast 494 568 37,000  Level Houston Center
07:32PM 28.5461 -97.9242 56° Northeast 494 568 37,000  Level Houston Center
07:33PM 28.6236 -97.7922 56° Northeast 493 567 37,000  Level Houston Center
07:34PM 28.6908 -97.6789 56° Northeast 490 564 37,000  Level Houston Center
07:35PM 28.7800 -97.5258 56° Northeast 488 562 37,000 -300 Level Houston Center
07:36PM 28.8547 -97.3989 56° Northeast 487 560 36,500 -960 Descending Houston Center
07:37PM 28.9289 -97.2711 56° Northeast 485 558 35,100 -1,920 Descending Houston Center
07:38PM 29.0047 -97.1419 56° Northeast 488 562 32,600 -2,100 Descending Houston Center
07:39PM 29.0783 -97.0144 57° Northeast 488 562 30,800 -2,280 Descending Houston Center
07:40PM 29.1658 -96.8614 57° Northeast 485 558 28,000 -2,160 Descending Houston Center
07:41PM 29.2383 -96.7339 57° Northeast 486 559 26,400 -2,520 Descending Houston Center
07:42PM 29.3139 -96.6056 56° Northeast 492 566 22,800 -3,000 Descending Houston Center
07:43PM 29.3869 -96.4803 56° Northeast 483 556 20,200 -2,460 Descending Houston Center
07:44PM 29.4531 -96.3617 57° Northeast 451 519 18,300 -1,980 Descending Houston Center
07:44PM 29.4542 -96.3608 33° Northeast 452 520 18,200 -1,800 Descending Houston Center
07:45PM 29.4842 -96.3078 57° Northeast 419 482 17,400 -2,520 Descending Houston Center
07:45PM 29.5294 -96.2303 56° Northeast 416 479 15,600 -3,000 Descending Houston Center
07:46PM 29.5500 -96.1950 56° Northeast 402 463 14,400 -3,240 Descending Houston Center
07:46PM 29.6061 -96.1358 43° Northeast 409 471 12,300 -3,180 Descending Houston Center
07:47PM 29.6289 -96.1117 43° Northeast 397 457 11,200 -2,160 Descending Houston Center
07:47PM 29.6806 -96.0561 43° Northeast 372 428 10,100 -1,860 Descending Houston Center
07:48PM 29.6919 -96.0397 51° Northeast 320 368 9,500 -1,680 Descending Houston Center
07:49PM 29.7514 -95.9844 39° Northeast 309 356 8,400 -1,320 Descending Houston Center
07:49PM 29.7700 -95.9706 33° Northeast 300 345 8,100 -780 Descending Houston Center
07:50PM 29.8233 -95.9319 32° Northeast 304 350 7,600 -600 Descending Houston Center
07:50PM 29.8408 -95.9169 37° Northeast 301 346 7,500 -540 Descending Houston Center
07:51PM 29.8894 -95.8794 34° Northeast 293 337 7,100 -540 Descending Houston Center
07:51PM 29.9036 -95.8661 39° Northeast 264 304 7,000 -600 Descending Houston Center
07:52PM 29.9475 -95.8339 32° Northeast 260 299 6,500 -540 Descending Houston Center
07:53PM 29.9853 -95.7728 54° Northeast 239 275 6,100 -360 Descending Houston Center
07:54PM 29.9928 -95.6994 83° East 234 269 5,800 -660 Descending Houston Center
07:55PM 29.9919 -95.6078 91° East 238 274 4,800 -1,200 Descending Houston Center
07:56PM 29.9947 -95.5331 88° East 235 270 3,400 -1,500 Descending Houston Center
07:57PM 29.9936 -95.4614 91° East 232 267 1,800 -1,200 Descending Houston Center
07:58PM 29.9931 -95.4022 91° East 208 239 1,000 -720 Descending Houston Center
07:59PM 29.9939 -95.3550 89° East 171 197 400 -600 Descending Houston Center